createdAt,value
2022-07-26T02:10:02.423Z,0.1
2022-07-26T02:12:00.640Z,0.2
2022-07-26T02:13:00.915Z,0.3
2022-07-26T02:15:01.375Z,0.4
2022-07-26T02:16:00.738Z,0.5
2022-07-26T02:18:01.670Z,0.6
2022-07-26T02:19:00.644Z,0.7
2022-07-26T02:20:01.132Z,0.8
2022-07-26T02:21:00.937Z,0.9
2022-07-26T02:22:00.646Z,1.1
2022-07-26T02:23:00.643Z,1.2
2022-07-26T02:24:00.646Z,1.3
2022-07-26T02:25:04.950Z,1.5
2022-07-26T02:26:00.710Z,1.6
2022-07-26T02:27:00.894Z,1.9
2022-07-26T02:28:00.636Z,2.1
2022-07-26T02:29:00.643Z,2.4
2022-07-26T02:30:01.288Z,2.8
2022-07-26T02:31:00.687Z,3.2
2022-07-26T02:32:00.648Z,3.7
2022-07-26T02:33:00.638Z,4.3
2022-07-26T02:34:00.635Z,4.8
2022-07-26T02:35:00.852Z,5.5
2022-07-26T02:36:00.715Z,6.3
2022-07-26T02:37:00.645Z,7.3
2022-07-26T02:38:00.645Z,8.4
2022-07-26T02:39:00.903Z,9.5
2022-07-26T02:41:00.686Z,12.4
2022-07-26T02:42:00.648Z,14.2
2022-07-26T02:43:00.656Z,16.0
2022-07-26T02:44:00.641Z,17.8
2022-07-26T02:45:01.309Z,20.3
2022-07-26T02:46:01.363Z,22.7
2022-07-26T02:47:00.745Z,26.2
2022-07-26T02:48:00.646Z,29.7
2022-07-26T02:50:00.872Z,37.7
2022-07-26T02:51:00.898Z,42.3
2022-07-26T02:52:00.645Z,48.8
2022-07-26T02:53:00.644Z,55.3
2022-07-26T02:54:00.643Z,61.7
2022-07-26T02:56:00.694Z,78.8
2022-07-26T02:57:00.653Z,90.6
2022-07-26T02:58:00.646Z,102.4
2022-07-26T02:59:00.648Z,114.2
2022-07-26T03:01:00.681Z,146.6
2022-07-26T03:02:00.684Z,167.9
2022-07-26T03:03:00.706Z,189.1
2022-07-26T03:04:00.893Z,210.4
2022-07-26T03:06:00.687Z,262.1
2022-07-26T03:07:00.650Z,296.5
2022-07-26T03:08:00.649Z,330.8
2022-07-26T03:09:00.645Z,365.1
2022-07-26T03:10:00.948Z,410.7
2022-07-26T03:11:00.923Z,456.3
2022-07-26T03:12:00.650Z,515.4
2022-07-26T03:13:00.654Z,574.5
2022-07-26T03:14:00.653Z,633.5
2022-07-26T03:16:00.817Z,774.3
2022-07-26T03:17:00.658Z,858.3
2022-07-26T03:18:00.650Z,942.3
2022-07-26T03:19:00.651Z,1026.3
2022-07-26T03:20:00.874Z,1128.0
2022-07-26T03:21:00.954Z,1229.7
2022-07-26T03:22:00.649Z,1348.7
2022-07-26T03:23:00.653Z,1467.7
2022-07-26T03:24:00.653Z,1586.7
2022-07-26T03:25:01.127Z,1714.7
2022-07-26T03:26:00.714Z,1842.8
2022-07-26T03:27:00.658Z,1968.5
2022-07-26T03:28:00.654Z,2094.1
2022-07-26T03:29:00.654Z,2219.8
2022-07-26T03:31:00.771Z,2484.3
2022-07-26T03:32:00.913Z,2683.5
2022-07-26T03:33:00.653Z,2882.7
2022-07-26T03:34:03.212Z,3081.9
2022-07-26T03:35:01.112Z,3290.5
2022-07-26T03:36:00.704Z,3499.0
2022-07-26T03:37:00.658Z,3705.5
2022-07-26T03:38:00.652Z,3912.1
2022-07-26T03:39:00.659Z,4118.6
2022-07-26T03:40:00.878Z,4335.1
2022-07-26T03:41:00.695Z,4551.7
2022-07-26T03:42:00.651Z,4793.6
2022-07-26T03:43:00.663Z,5035.5
2022-07-26T03:44:00.664Z,5277.5
2022-07-26T03:46:00.751Z,5797.6
2022-07-26T03:47:00.656Z,6015.5
2022-07-26T03:48:00.661Z,6233.3
2022-07-26T03:49:00.709Z,6451.2
2022-07-26T03:50:01.131Z,6700.9
2022-07-26T03:51:00.978Z,6950.5
2022-07-26T03:52:00.654Z,7277.3
2022-07-26T03:53:00.656Z,7604.0
2022-07-26T03:54:00.660Z,7930.7
2022-07-26T03:55:01.131Z,8279.1
2022-07-26T03:56:00.963Z,8627.5
2022-07-26T03:57:00.661Z,9042.1
2022-07-26T03:58:00.668Z,9456.6
2022-07-26T03:59:00.661Z,9871.1
2022-07-26T04:01:00.724Z,10936.3
2022-07-26T04:02:00.748Z,11886.3
2022-07-26T04:03:00.723Z,12836.2
2022-07-26T04:04:00.666Z,13786.1
2022-07-26T04:05:01.132Z,14872.9
2022-07-26T04:06:00.953Z,15959.6
2022-07-26T04:07:03.110Z,16847.2
2022-07-26T04:08:00.911Z,17734.8
2022-07-26T04:09:00.660Z,18622.4
2022-07-26T04:10:01.144Z,19066.7
2022-07-26T04:11:00.701Z,19510.9
2022-07-26T04:12:00.669Z,19200.5
2022-07-26T04:13:00.685Z,18890.0
2022-07-26T04:14:00.671Z,18579.5
2022-07-26T04:16:00.690Z,17335.7
2022-07-26T04:17:00.738Z,16665.6
2022-07-26T04:18:00.921Z,15995.5
2022-07-26T04:19:00.666Z,15325.5
2022-07-26T04:20:01.132Z,14584.9
2022-07-26T04:21:00.714Z,13844.4
2022-07-26T04:22:00.663Z,13236.9
2022-07-26T04:23:00.664Z,12629.3
2022-07-26T04:24:00.922Z,12021.8
2022-07-26T04:25:01.134Z,11726.0
2022-07-26T04:26:00.695Z,11430.2
2022-07-26T04:27:00.672Z,11389.7
2022-07-26T04:28:00.677Z,11349.3
2022-07-26T04:29:00.670Z,11308.8
2022-07-26T04:30:01.642Z,11402.2
2022-07-26T04:31:00.826Z,11495.6
2022-07-26T04:32:00.675Z,11357.6
2022-07-26T04:33:01.762Z,11219.6
2022-07-26T04:34:00.675Z,11081.6
2022-07-26T04:36:00.720Z,11562.4
2022-07-26T04:37:00.941Z,11976.9
2022-07-26T04:38:00.679Z,12391.5
2022-07-26T04:39:00.689Z,12806.0
2022-07-26T04:40:00.888Z,13733.3
2022-07-26T04:41:00.951Z,14660.7
2022-07-26T04:42:00.677Z,16495.9
2022-07-26T04:43:00.941Z,18331.1
2022-07-26T04:44:00.677Z,20166.3
2022-07-26T04:46:00.722Z,22658.5
2022-07-26T04:47:00.679Z,23422.4
2022-07-26T04:48:00.689Z,24186.3
2022-07-26T04:49:00.776Z,24950.1
2022-07-26T04:50:01.357Z,24949.8
2022-07-26T04:51:00.707Z,24949.5
2022-07-26T04:52:00.678Z,24900.3
2022-07-26T04:53:00.676Z,24851.2
2022-07-26T04:54:00.678Z,24802.1
2022-07-26T04:55:00.914Z,24865.9
2022-07-26T04:56:00.868Z,24929.8
2022-07-26T04:57:00.674Z,24423.6
2022-07-26T04:58:00.676Z,23917.4
2022-07-26T04:59:00.673Z,23411.2
2022-07-26T05:00:21.623Z,23465.0
2022-07-26T05:01:16.188Z,23518.8
2022-07-26T05:02:00.748Z,23652.3
2022-07-26T05:03:00.784Z,23785.7
2022-07-26T05:04:00.674Z,23919.2
2022-07-26T05:05:15.705Z,24112.3
2022-07-26T05:06:00.831Z,24305.5
2022-07-26T05:07:00.693Z,24678.8
2022-07-26T05:08:00.681Z,25052.1
2022-07-26T05:09:00.742Z,25425.5
2022-07-26T05:10:00.756Z,24795.9
2022-07-26T05:11:02.492Z,24166.4
2022-07-26T05:12:00.675Z,23398.9
2022-07-26T05:13:00.740Z,22631.3
2022-07-26T05:14:00.676Z,21863.8
2022-07-26T05:16:01.804Z,20848.2
2022-07-26T05:17:00.907Z,20593.2
2022-07-26T05:18:00.681Z,20338.2
2022-07-26T05:19:00.676Z,20083.2
2022-07-26T05:21:00.904Z,20780.4
2022-07-26T05:22:00.716Z,20837.1
2022-07-26T05:23:00.681Z,20893.9
2022-07-26T05:24:00.701Z,20950.6
2022-07-26T05:25:00.698Z,21603.9
2022-07-26T05:26:00.886Z,22257.1
2022-07-26T05:27:00.728Z,22971.5
2022-07-26T05:28:00.689Z,23685.9
2022-07-26T05:29:01.782Z,24400.3
2022-07-26T05:30:01.272Z,25308.5
2022-07-26T05:31:00.959Z,26216.6
2022-07-26T05:32:00.839Z,27741.5
2022-07-26T05:33:00.680Z,29266.5
2022-07-26T05:34:00.688Z,30791.4
2022-07-26T05:35:00.696Z,31829.6
2022-07-26T05:36:00.893Z,32867.8
2022-07-26T05:37:00.717Z,34302.1
2022-07-26T05:38:00.691Z,35736.5
2022-07-26T05:39:00.692Z,37170.8
2022-07-26T05:40:00.699Z,39003.3
2022-07-26T05:41:01.191Z,40835.7
2022-07-26T05:42:00.732Z,43226.7
2022-07-26T05:43:00.682Z,45617.7
2022-07-26T05:44:00.685Z,48008.7
2022-07-26T05:45:01.502Z,49046.1
2022-07-26T05:46:00.953Z,50083.4
2022-07-26T05:47:00.734Z,50845.8
2022-07-26T05:48:00.689Z,51608.2
2022-07-26T05:49:00.765Z,52370.6
2022-07-26T05:50:00.690Z,52525.3
2022-07-26T05:51:00.897Z,52679.9
2022-07-26T05:52:01.370Z,53844.8
2022-07-26T05:53:00.686Z,55009.7
2022-07-26T05:54:00.689Z,56174.5
2022-07-26T05:55:00.705Z,56798.9
2022-07-26T05:56:01.033Z,57423.2
2022-07-26T05:57:01.137Z,57621.1
2022-07-26T05:58:00.688Z,57819.1
2022-07-26T05:59:00.692Z,58017.0
2022-07-26T06:00:01.134Z,58193.1
2022-07-26T06:01:00.905Z,58369.3
2022-07-26T06:02:00.757Z,59140.3
2022-07-26T06:03:00.730Z,59911.4
2022-07-26T06:04:00.759Z,60682.5
2022-07-26T06:05:00.710Z,62139.4
2022-07-26T06:06:00.898Z,63596.3
2022-07-26T06:15:01.534Z,64565.7
2022-07-26T06:16:00.696Z,65535.0
2022-07-26T06:45:01.746Z,65535.0
2022-07-26T06:52:00.715Z,65388.0
2022-07-26T06:53:00.962Z,65241.0
2022-07-26T06:54:04.071Z,65094.0
2022-07-26T06:56:00.723Z,62096.7
2022-07-26T06:57:00.715Z,60439.8
2022-07-26T06:58:00.763Z,58782.9
2022-07-26T06:59:00.722Z,57126.1
2022-07-26T07:01:00.763Z,53323.7
2022-07-26T07:07:00.984Z,53470.7
2022-07-26T07:08:00.735Z,53617.7
2022-07-26T07:09:00.721Z,53764.7
2022-07-26T07:10:01.324Z,55263.3
2022-07-26T07:11:00.720Z,56762.0
2022-07-26T07:12:05.543Z,58418.9
2022-07-26T07:13:00.715Z,60075.7
2022-07-26T07:14:00.712Z,61732.6
2022-07-26T07:15:01.166Z,63633.8
2022-07-26T07:16:00.767Z,65535.0
2022-07-26T09:15:01.465Z,65535.0
2022-07-26T10:00:05.213Z,65535.0
2022-07-26T10:15:01.583Z,65535.0
2022-07-26T10:30:01.553Z,65535.0
2022-07-26T11:30:02.346Z,65535.0
2022-07-26T12:15:01.581Z,65535.0
2022-07-26T12:30:01.842Z,65535.0
2022-07-26T12:45:01.521Z,65535.0
2022-07-26T13:45:01.545Z,65535.0
2022-07-26T14:15:01.559Z,65535.0
2022-07-26T14:30:01.698Z,65535.0
2022-07-26T14:45:01.497Z,65535.0
2022-07-26T16:50:02.254Z,65224.1
2022-07-26T16:51:00.951Z,64913.3
2022-07-26T16:52:00.897Z,64602.4
2022-07-26T16:53:00.886Z,64442.9
2022-07-26T16:54:00.911Z,64283.3
2022-07-26T16:58:01.415Z,64250.8
2022-07-26T16:59:00.897Z,64218.3
2022-07-26T17:01:00.955Z,62845.1
2022-07-26T17:02:02.177Z,62158.5
2022-07-26T17:03:03.305Z,61868.9
2022-07-26T17:04:00.953Z,61579.4
2022-07-26T17:05:01.507Z,61361.6
2022-07-26T17:06:05.902Z,61143.8
2022-07-26T17:07:24.302Z,60926.0
2022-07-26T17:08:01.338Z,60553.1
2022-07-26T17:09:00.900Z,60180.3
2022-07-26T17:10:01.030Z,59740.1
2022-07-26T17:11:00.915Z,59300.0
2022-07-26T17:12:06.052Z,58859.9
2022-07-26T17:13:01.356Z,57890.9
2022-07-26T17:14:00.957Z,56922.0
2022-07-26T17:16:01.007Z,55998.5
2022-07-26T17:17:00.897Z,55536.8
2022-07-26T17:18:01.136Z,54637.5
2022-07-26T17:19:00.931Z,53738.1
2022-07-26T17:20:01.392Z,53107.3
2022-07-26T17:21:00.962Z,52476.5
2022-07-26T17:22:00.965Z,51845.7
2022-07-26T17:23:01.131Z,50929.5
2022-07-26T17:24:05.262Z,50013.3
2022-07-26T17:25:01.462Z,49333.1
2022-07-26T17:26:00.927Z,48652.8
2022-07-26T17:27:00.957Z,47972.5
2022-07-26T17:28:01.174Z,48115.2
2022-07-26T17:29:01.014Z,48257.9
2022-07-26T17:31:00.922Z,49357.9
2022-07-26T17:32:00.984Z,49907.9
2022-07-26T17:33:01.259Z,51096.7
2022-07-26T17:34:01.985Z,52285.6
2022-07-26T17:35:01.846Z,53445.1
2022-07-26T17:36:02.321Z,54604.5
2022-07-26T17:37:01.986Z,55764.0
2022-07-26T17:38:01.343Z,55785.5
2022-07-26T17:39:02.494Z,55806.9
2022-07-26T17:41:00.954Z,55176.7
2022-07-26T17:42:00.937Z,54861.5
2022-07-26T17:43:01.110Z,54685.7
2022-07-26T17:44:00.899Z,54509.8
2022-07-26T17:45:01.439Z,54103.1
2022-07-26T17:46:00.935Z,53696.5
2022-07-26T17:47:01.031Z,53289.8
2022-07-26T17:48:05.724Z,51734.3
2022-07-26T17:49:01.064Z,50178.9
2022-07-26T17:50:44.753Z,48737.6
2022-07-26T18:10:00.991Z,23942.0
2022-07-26T18:13:00.228Z,25561.5
2022-07-26T18:14:00.134Z,26533.2
2022-07-26T18:15:01.001Z,28367.2
2022-07-26T18:16:04.240Z,29677.1
2022-07-26T18:17:00.130Z,30659.6
2022-07-26T18:18:00.162Z,31656.6
2022-07-26T18:19:00.130Z,32454.1
2022-07-26T18:20:00.397Z,32899.1
2022-07-26T18:21:00.203Z,33269.9
2022-07-26T18:22:04.151Z,33583.7
2022-07-26T18:23:00.186Z,33666.0
2022-07-26T18:24:16.176Z,33737.3
2022-07-26T18:25:00.277Z,34352.8
2022-07-26T18:26:00.265Z,34968.3
2022-07-26T18:27:00.133Z,35583.7
2022-07-26T18:28:04.822Z,35804.3
2022-07-26T18:29:00.134Z,36024.8
2022-07-26T18:30:00.848Z,35750.3
2022-07-26T18:31:00.207Z,35475.7
2022-07-26T18:32:00.188Z,35201.2
2022-07-26T18:33:00.154Z,34822.5
2022-07-26T18:34:04.409Z,34443.7
2022-07-26T18:35:00.778Z,34036.7
2022-07-26T18:36:00.134Z,33629.6
2022-07-26T18:37:00.138Z,33222.5
2022-07-26T18:38:00.162Z,32838.0
2022-07-26T18:39:00.173Z,32453.5
2022-07-26T18:40:00.368Z,32080.6
2022-07-26T18:41:00.205Z,31707.7
2022-07-26T18:42:00.135Z,31334.9
2022-07-26T18:43:00.132Z,30680.3
2022-07-26T18:44:00.171Z,30025.8
2022-07-26T18:45:00.840Z,29144.0
2022-07-26T18:46:04.203Z,28262.2
2022-07-26T18:47:00.172Z,27380.4
2022-07-26T18:48:00.142Z,26384.3
2022-07-26T18:49:00.240Z,25388.3
2022-07-26T18:51:00.205Z,23332.3
2022-07-26T18:52:05.568Z,22304.3
2022-07-26T18:53:00.152Z,21196.6
2022-07-26T18:54:00.185Z,20088.9
2022-07-26T18:55:00.911Z,18911.4
2022-07-26T18:56:05.140Z,17733.9
2022-07-26T18:57:00.144Z,16556.3
2022-07-26T18:58:04.730Z,15582.9
2022-07-26T18:59:00.178Z,14609.4
2022-07-26T19:00:00.911Z,13873.9
2022-07-26T19:01:00.153Z,13138.3
2022-07-26T19:02:00.551Z,12402.8
2022-07-26T19:03:00.136Z,11750.1
2022-07-26T19:04:03.471Z,11097.3
2022-07-26T19:05:00.383Z,10554.0
2022-07-26T19:06:00.205Z,10010.7
2022-07-26T19:07:00.143Z,9467.3
2022-07-26T19:08:00.141Z,9196.4
2022-07-26T19:09:00.184Z,8925.5
2022-07-26T19:10:02.907Z,8706.0
2022-07-26T19:11:00.142Z,8486.5
2022-07-26T19:12:00.139Z,8267.1
2022-07-26T19:13:00.152Z,8002.9
2022-07-26T19:14:00.194Z,7738.7
2022-07-26T19:15:00.854Z,7415.6
2022-07-26T19:16:00.268Z,7092.5
2022-07-26T19:17:00.145Z,6769.5
2022-07-26T19:18:00.146Z,6390.2
2022-07-26T19:19:00.573Z,6010.9
2022-07-26T19:20:01.022Z,5709.9
2022-07-26T19:21:00.146Z,5408.8
2022-07-26T19:22:00.145Z,5107.7
2022-07-26T19:23:00.148Z,4739.4
2022-07-26T19:24:00.318Z,4371.1
2022-07-26T19:25:00.872Z,4102.4
2022-07-26T19:26:00.214Z,3833.7
2022-07-26T19:27:00.149Z,3565.1
2022-07-26T19:28:00.155Z,3376.3
2022-07-26T19:29:00.181Z,3187.5
2022-07-26T19:30:00.809Z,3054.7
2022-07-26T19:31:00.198Z,2922.0
2022-07-26T19:32:00.156Z,2789.3
2022-07-26T19:33:00.148Z,2695.9
2022-07-26T19:34:00.205Z,2602.5
2022-07-26T19:35:00.926Z,2509.5
2022-07-26T19:36:00.175Z,2416.5
2022-07-26T19:37:00.148Z,2323.5
2022-07-26T19:38:00.173Z,2240.5
2022-07-26T19:39:00.327Z,2157.5
2022-07-26T19:40:00.397Z,2085.7
2022-07-26T19:41:00.166Z,1997.8
2022-07-26T19:42:00.154Z,1909.9
2022-07-26T19:43:00.167Z,1812.1
2022-07-26T19:44:00.187Z,1714.3
2022-07-26T19:45:00.932Z,1621.9
2022-07-26T19:46:00.255Z,1529.4
2022-07-26T19:47:00.154Z,1436.9
2022-07-26T19:48:00.167Z,1348.7
2022-07-26T19:49:00.247Z,1260.4
2022-07-26T19:50:00.795Z,1196.6
2022-07-26T19:51:00.224Z,1122.1
2022-07-26T19:52:00.163Z,1047.5
2022-07-26T19:53:00.168Z,976.5
2022-07-26T19:54:00.302Z,905.4
2022-07-26T19:55:00.382Z,834.3
2022-07-26T19:56:00.162Z,771.0
2022-07-26T19:57:00.163Z,707.7
2022-07-26T19:58:00.165Z,655.0
2022-07-26T19:59:05.323Z,602.3
2022-07-26T20:01:00.164Z,501.5
2022-07-26T20:02:00.262Z,451.1
2022-07-26T20:03:00.407Z,405.7
2022-07-26T20:04:00.216Z,360.2
2022-07-26T20:05:00.391Z,314.7
2022-07-26T20:06:00.237Z,276.9
2022-07-26T20:07:00.235Z,239.1
2022-07-26T20:08:00.191Z,212.2
2022-07-26T20:09:00.294Z,185.3
2022-07-26T20:10:00.893Z,158.3
2022-07-26T20:11:00.306Z,138.8
2022-07-26T20:12:00.179Z,119.3
2022-07-26T20:13:00.177Z,104.1
2022-07-26T20:14:00.209Z,89.0
2022-07-26T20:15:01.121Z,79.0
2022-07-26T20:16:00.171Z,68.8
2022-07-26T20:17:00.219Z,58.6
2022-07-26T20:18:00.251Z,51.8
2022-07-26T20:19:00.275Z,45.0
2022-07-26T20:20:00.863Z,38.2
2022-07-26T20:21:00.275Z,34.1
2022-07-26T20:22:00.172Z,29.9
2022-07-26T20:23:00.175Z,27.3
2022-07-26T20:24:00.200Z,24.7
2022-07-26T20:25:00.953Z,22.1
2022-07-26T20:26:00.171Z,20.3
2022-07-26T20:27:00.185Z,18.4
2022-07-26T20:28:00.240Z,16.9
2022-07-26T20:29:00.203Z,15.3
2022-07-26T20:31:00.222Z,12.3
2022-07-26T20:32:00.239Z,10.9
2022-07-26T20:33:00.185Z,9.7
2022-07-26T20:34:00.324Z,8.5
2022-07-26T20:35:00.400Z,7.3
2022-07-26T20:36:00.187Z,6.4
2022-07-26T20:37:00.173Z,5.5
2022-07-26T20:38:00.177Z,5.0
2022-07-26T20:39:00.208Z,4.5
2022-07-26T20:40:00.962Z,3.9
2022-07-26T20:41:01.390Z,3.5
2022-07-26T20:42:00.976Z,3.1
2022-07-26T20:43:00.174Z,2.8
2022-07-26T20:44:00.230Z,2.5
2022-07-26T20:45:00.826Z,2.1
2022-07-26T20:46:00.240Z,1.9
2022-07-26T20:47:00.178Z,1.7
2022-07-26T20:48:00.185Z,1.6
2022-07-26T20:49:00.278Z,1.5
2022-07-26T20:51:00.176Z,1.1
2022-07-26T20:52:00.191Z,1.0
2022-07-26T20:53:00.175Z,0.9
2022-07-26T20:54:00.216Z,0.7
2022-07-26T20:55:01.359Z,0.6
2022-07-26T20:56:00.183Z,0.5
2022-07-26T20:58:00.185Z,0.4
2022-07-26T20:59:00.218Z,0.3
2022-07-26T21:00:00.911Z,0.3
2022-07-26T21:01:00.239Z,0.2
2022-07-26T21:02:00.227Z,0.1
